Time;durP1;ratioP1;P1;durP2;ratioP2;P2;SDS_P1;SDS_P2;PMS_P1;PMS_P2;Temp;Humidity;BMP_temperature;BMP_pressure;BME280_temperature;BME280_humidity;BME280_pressure;Samples;Min_cycle;Max_cycle;Signal;HPM_P1;HPM_P2
2021/07/19 00:01:54;;;;;;;7.85;5.70;;;27.20;56.00;;;;;;5073727;28;20133;-35
2021/07/19 00:04:20;;;;;;;8.40;5.00;;;27.10;56.50;;;;;;5073967;28;20033;-35
2021/07/19 00:06:46;;;;;;;7.43;5.15;;;27.10;56.40;;;;;;5073378;28;20031;-34
2021/07/19 00:09:12;;;;;;;11.48;5.30;;;27.10;57.10;;;;;;5074198;28;20020;-34
2021/07/19 00:11:38;;;;;;;10.35;4.70;;;27.20;56.30;;;;;;5071588;28;20498;-35
2021/07/19 00:14:05;;;;;;;8.45;4.63;;;27.10;56.20;;;;;;5072631;28;20119;-34
2021/07/19 00:16:31;;;;;;;8.82;5.15;;;27.10;56.40;;;;;;5073590;28;20024;-35
2021/07/19 00:18:57;;;;;;;8.48;4.97;;;27.00;56.40;;;;;;5074171;28;20032;-35
2021/07/19 00:21:23;;;;;;;12.48;5.45;;;27.00;56.40;;;;;;5073700;28;20025;-34
2021/07/19 00:23:49;;;;;;;10.48;5.43;;;26.90;56.60;;;;;;5072143;28;20032;-35
2021/07/19 00:26:15;;;;;;;10.20;4.93;;;26.90;56.80;;;;;;5072744;28;20040;-34
2021/07/19 00:28:42;;;;;;;8.05;4.80;;;26.90;56.90;;;;;;5071676;28;20049;-34
2021/07/19 00:31:08;;;;;;;10.38;4.68;;;26.80;56.80;;;;;;5073422;28;20044;-34
2021/07/19 00:33:33;;;;;;;11.88;4.88;;;26.80;56.80;;;;;;5073421;28;20020;-35
2021/07/19 00:35:59;;;;;;;7.13;4.68;;;26.80;57.00;;;;;;5073685;28;20040;-34
2021/07/19 00:38:24;;;;;;;10.00;4.75;;;26.90;56.90;;;;;;5073523;28;20024;-41
2021/07/19 00:40:50;;;;;;;11.15;4.63;;;26.90;57.40;;;;;;5073961;28;20036;-34
2021/07/19 00:43:16;;;;;;;8.70;4.25;;;26.90;56.80;;;;;;5073223;28;20095;-34
2021/07/19 00:45:41;;;;;;;6.10;3.72;;;26.90;56.70;;;;;;5072692;28;20032;-35
2021/07/19 00:48:07;;;;;;;7.13;3.97;;;26.90;56.80;;;;;;5073134;28;20032;-35
2021/07/19 00:50:36;;;;;;;7.95;4.53;;;26.80;56.80;;;;;;5072426;28;20032;-35
2021/07/19 00:53:03;;;;;;;8.18;3.78;;;26.70;56.90;;;;;;5073275;28;20043;-34
2021/07/19 00:55:33;;;;;;;8.23;4.32;;;26.70;56.90;;;;;;5072629;28;20074;-35
2021/07/19 00:58:02;;;;;;;6.45;4.03;;;26.60;57.00;;;;;;5073210;28;20024;-34
2021/07/19 01:00:28;;;;;;;8.27;4.20;;;26.70;56.90;;;;;;5072596;28;20360;-34
2021/07/19 01:02:56;;;;;;;6.18;4.07;;;26.70;56.80;;;;;;5072836;28;20025;-34
2021/07/19 01:05:21;;;;;;;8.13;4.30;;;26.70;56.50;;;;;;5073096;28;20024;-34
2021/07/19 01:07:48;;;;;;;7.75;3.85;;;26.80;56.60;;;;;;5071055;28;20527;-34
2021/07/19 01:10:19;;;;;;;9.25;3.88;;;26.80;56.40;;;;;;5072798;28;20039;-34
2021/07/19 01:12:47;;;;;;;7.63;4.35;;;26.80;56.20;;;;;;5072430;28;20412;-35
2021/07/19 01:15:13;;;;;;;6.88;3.88;;;26.80;56.10;;;;;;5071218;28;20021;-34
2021/07/19 01:17:39;;;;;;;9.52;3.83;;;26.70;55.90;;;;;;5071034;28;20032;-35
2021/07/19 01:20:06;;;;;;;8.55;3.40;;;26.60;56.00;;;;;;5072764;28;20024;-34
2021/07/19 01:25:31;;;;;;;;;;;26.80;56.00;;;;;;5072364;28;20050;-36
2021/07/19 01:28:16;;;;;;;9.38;3.85;;;26.70;55.80;;;;;;5071439;28;20003;-35
2021/07/19 01:30:43;;;;;;;8.68;3.78;;;26.70;56.00;;;;;;5072054;28;20032;-35
2021/07/19 01:33:12;;;;;;;7.75;3.00;;;26.60;55.70;;;;;;5072394;28;20476;-35
2021/07/19 01:35:40;;;;;;;9.60;3.85;;;26.70;56.00;;;;;;5071719;28;20020;-36
2021/07/19 01:38:07;;;;;;;7.30;3.47;;;26.70;55.70;;;;;;5072503;28;20048;-35
2021/07/19 01:40:35;;;;;;;7.10;3.30;;;26.70;55.50;;;;;;5072218;28;20028;-35
2021/07/19 01:43:02;;;;;;;5.70;3.58;;;26.70;55.80;;;;;;5072434;28;20020;-35
2021/07/19 01:45:29;;;;;;;8.68;3.50;;;26.80;55.50;;;;;;5071118;28;20063;-35
2021/07/19 01:47:55;;;;;;;6.65;3.30;;;26.80;55.40;;;;;;5072394;28;20028;-35
2021/07/19 01:50:21;;;;;;;8.02;3.33;;;26.80;55.20;;;;;;5070930;28;20063;-35
2021/07/19 01:52:48;;;;;;;5.35;3.38;;;26.80;55.30;;;;;;5072099;28;20127;-35
2021/07/19 01:55:14;;;;;;;7.90;2.85;;;26.80;55.10;;;;;;5072003;28;20021;-35
2021/07/19 01:57:40;;;;;;;7.03;2.95;;;26.80;54.90;;;;;;5071418;28;20024;-36
2021/07/19 02:00:08;;;;;;;11.02;3.00;;;26.80;54.90;;;;;;5071989;28;20052;-36
2021/07/19 02:02:37;;;;;;;7.43;3.22;;;26.80;54.90;;;;;;5070257;28;20104;-36
2021/07/19 02:05:10;;;;;;;8.30;3.20;;;26.70;54.80;;;;;;5072055;28;20021;-35
2021/07/19 02:07:37;;;;;;;5.35;2.60;;;26.60;55.50;;;;;;5071634;28;20067;-35
2021/07/19 02:10:09;;;;;;;8.35;2.72;;;26.70;55.00;;;;;;5072404;28;20032;-35
2021/07/19 02:12:37;;;;;;;4.35;2.83;;;26.70;55.00;;;;;;5070254;28;20124;-35
2021/07/19 02:15:12;;;;;;;6.82;2.92;;;26.70;55.10;;;;;;5071729;28;20024;-36
2021/07/19 02:17:38;;;;;;;6.38;2.97;;;26.60;55.10;;;;;;5071271;28;20020;-35
2021/07/19 02:20:08;;;;;;;5.22;3.13;;;26.70;55.00;;;;;;5070773;28;20176;-35
2021/07/19 02:22:35;;;;;;;6.88;3.13;;;26.60;54.90;;;;;;5071255;28;20039;-35
2021/07/19 02:25:01;;;;;;;10.07;3.00;;;26.60;55.00;;;;;;5071976;28;20041;-35
2021/07/19 02:27:28;;;;;;;5.85;3.28;;;26.60;55.20;;;;;;5071645;28;20020;-36
2021/07/19 02:29:55;;;;;;;7.85;3.03;;;26.50;55.30;;;;;;5070158;28;20032;-36
2021/07/19 02:32:22;;;;;;;10.35;2.85;;;26.50;55.50;;;;;;5071917;28;20052;-35
2021/07/19 02:34:48;;;;;;;9.25;2.70;;;26.50;55.50;;;;;;5071438;28;20028;-35
2021/07/19 02:37:14;;;;;;;9.98;3.30;;;26.50;55.40;;;;;;5076208;28;20029;-35
2021/07/19 02:39:41;;;;;;;8.05;3.08;;;26.50;55.20;;;;;;5075623;28;20029;-35
2021/07/19 02:42:08;;;;;;;9.50;2.80;;;26.60;55.90;;;;;;5075912;28;20107;-35
2021/07/19 02:44:35;;;;;;;8.40;2.60;;;26.60;55.20;;;;;;5073934;28;20481;-38
2021/07/19 02:47:01;;;;;;;8.13;3.50;;;26.60;55.10;;;;;;5075427;28;20509;-35
2021/07/19 02:49:27;;;;;;;5.90;2.90;;;26.60;55.00;;;;;;5075429;28;20021;-35
2021/07/19 02:51:53;;;;;;;4.75;2.65;;;26.50;55.20;;;;;;5074743;28;20032;-35
2021/07/19 02:54:22;;;;;;;6.75;2.95;;;26.50;55.40;;;;;;5075914;28;20113;-35
2021/07/19 02:56:48;;;;;;;7.90;3.00;;;26.50;55.50;;;;;;5073528;28;20486;-35
2021/07/19 02:59:14;;;;;;;5.38;3.08;;;26.50;55.50;;;;;;5075761;28;20086;-35
2021/07/19 03:01:41;;;;;;;5.50;2.67;;;26.50;55.40;;;;;;5074855;28;20352;-35
2021/07/19 03:04:07;;;;;;;5.55;3.22;;;26.50;55.40;;;;;;5074211;28;20107;-34
2021/07/19 03:06:39;;;;;;;6.00;3.00;;;26.60;55.50;;;;;;5075319;28;20028;-34
2021/07/19 03:09:06;;;;;;;5.53;3.20;;;26.60;55.60;;;;;;5073911;28;20104;-36
2021/07/19 03:11:40;;;;;;;6.53;3.17;;;26.60;55.50;;;;;;5074915;28;20081;-37
2021/07/19 03:14:15;;;;;;;6.13;2.80;;;26.60;55.40;;;;;;5073899;28;20055;-36
2021/07/19 03:16:44;;;;;;;8.95;2.90;;;26.60;55.10;;;;;;5074747;28;20017;-36
2021/07/19 03:19:13;;;;;;;5.35;2.60;;;26.50;55.10;;;;;;5073753;28;20029;-36
2021/07/19 03:21:40;;;;;;;6.63;2.75;;;26.60;55.20;;;;;;5074556;28;20036;-34
2021/07/19 03:24:11;;;;;;;6.60;2.70;;;26.60;55.00;;;;;;5073504;28;20391;-36
2021/07/19 03:26:39;;;;;;;6.55;2.88;;;26.60;55.10;;;;;;5074604;28;20028;-42
2021/07/19 03:29:06;;;;;;;5.65;2.70;;;26.50;55.10;;;;;;5074838;28;20027;-36
2021/07/19 03:31:33;;;;;;;4.97;2.78;;;26.60;55.00;;;;;;5074825;28;20040;-36
2021/07/19 03:33:59;;;;;;;6.25;3.00;;;26.60;55.20;;;;;;5073948;28;20025;-36
2021/07/19 03:36:28;;;;;;;5.63;2.35;;;26.70;54.90;;;;;;5073123;28;20035;-35
2021/07/19 03:38:55;;;;;;;5.43;3.38;;;26.80;54.90;;;;;;5074269;28;20039;-36
2021/07/19 03:41:23;;;;;;;5.07;2.80;;;26.80;54.70;;;;;;5073575;28;20028;-36
2021/07/19 03:43:49;;;;;;;10.30;2.85;;;26.80;54.50;;;;;;5074242;28;20060;-35
2021/07/19 03:46:16;;;;;;;5.68;2.88;;;26.90;54.70;;;;;;5074405;28;20021;-36
2021/07/19 03:48:42;;;;;;;7.70;2.63;;;26.90;54.60;;;;;;5073646;28;20021;-34
2021/07/19 03:51:09;;;;;;;5.40;3.00;;;27.00;54.50;;;;;;5073159;28;20368;-35
2021/07/19 03:53:36;;;;;;;8.02;3.40;;;26.90;54.30;;;;;;5074220;28;20024;-35
2021/07/19 03:56:02;;;;;;;8.65;2.92;;;26.90;54.30;;;;;;5073975;28;20115;-35
2021/07/19 03:58:30;;;;;;;5.90;3.00;;;26.90;54.20;;;;;;5074132;28;20099;-35
2021/07/19 04:00:57;;;;;;;8.50;3.05;;;26.80;54.20;;;;;;5073822;28;20115;-35
2021/07/19 04:03:27;;;;;;;10.65;3.20;;;26.90;54.30;;;;;;5074117;28;20060;-35
2021/07/19 04:05:59;;;;;;;5.60;2.78;;;26.80;54.50;;;;;;5073540;28;20027;-36
2021/07/19 04:08:27;;;;;;;9.98;3.10;;;26.90;54.50;;;;;;5074072;28;20037;-36
2021/07/19 04:10:54;;;;;;;8.63;3.10;;;26.90;54.50;;;;;;5073274;28;20123;-35
2021/07/19 04:13:20;;;;;;;4.53;2.80;;;26.90;54.50;;;;;;5074141;28;20459;-35
2021/07/19 04:15:49;;;;;;;10.65;3.22;;;26.80;54.30;;;;;;5073344;28;20108;-35
2021/07/19 04:18:15;;;;;;;6.72;3.00;;;26.70;54.30;;;;;;5074005;28;20104;-35
2021/07/19 04:20:42;;;;;;;5.47;3.00;;;26.70;54.60;;;;;;5073521;28;20081;-40
2021/07/19 04:23:12;;;;;;;5.38;3.10;;;26.70;54.70;;;;;;5073736;28;20020;-35
2021/07/19 04:25:57;;;;;;;5.35;3.05;;;26.60;54.60;;;;;;5072241;28;20506;-35
2021/07/19 04:28:23;;;;;;;7.15;2.80;;;26.70;54.80;;;;;;5072624;28;20024;-35
2021/07/19 04:30:51;;;;;;;7.50;3.15;;;26.70;54.70;;;;;;5066471;28;20041;-36
2021/07/19 04:33:18;;;;;;;8.38;3.30;;;26.60;54.60;;;;;;5072472;28;20036;-36
2021/07/19 04:35:48;;;;;;;5.03;3.03;;;26.70;54.60;;;;;;5070495;28;20056;-35
2021/07/19 04:38:22;;;;;;;9.80;3.40;;;26.70;54.60;;;;;;5072683;28;20020;-35
2021/07/19 04:40:53;;;;;;;9.52;3.42;;;26.60;54.70;;;;;;5070250;28;20028;-38
2021/07/19 04:43:20;;;;;;;7.03;3.35;;;26.50;55.40;;;;;;5072060;28;20039;-35
2021/07/19 04:45:47;;;;;;;16.08;4.10;;;26.50;55.00;;;;;;5069638;28;20028;-37
2021/07/19 04:48:14;;;;;;;12.25;3.90;;;26.40;55.10;;;;;;5068987;28;20021;-35
2021/07/19 04:50:59;;;;;;;10.68;4.00;;;26.40;55.50;;;;;;5072919;28;20106;-35
2021/07/19 04:53:24;;;;;;;7.25;3.50;;;26.40;55.30;;;;;;5070720;28;20483;-35
2021/07/19 04:55:53;;;;;;;9.77;3.88;;;26.50;55.20;;;;;;5071907;28;20031;-35
2021/07/19 04:58:22;;;;;;;9.77;3.40;;;26.40;55.20;;;;;;5072877;28;20021;-35
2021/07/19 05:01:00;;;;;;;6.68;3.50;;;26.30;55.40;;;;;;5072435;28;20033;-35
2021/07/19 05:03:29;;;;;;;10.60;3.38;;;26.30;55.40;;;;;;5071833;28;20028;-35
2021/07/19 05:05:56;;;;;;;7.35;3.08;;;26.30;55.40;;;;;;5072548;28;20023;-34
2021/07/19 05:08:25;;;;;;;6.95;2.92;;;26.40;55.40;;;;;;5073335;28;20043;-35
2021/07/19 05:10:51;;;;;;;7.75;3.45;;;26.40;55.60;;;;;;5068603;28;20119;-35
2021/07/19 05:13:18;;;;;;;6.30;3.08;;;26.40;55.40;;;;;;5072332;28;20028;-35
2021/07/19 05:15:45;;;;;;;7.30;3.40;;;26.50;55.20;;;;;;5072573;28;20032;-40
2021/07/19 05:18:11;;;;;;;9.23;3.80;;;26.60;55.10;;;;;;5072516;28;20031;-35
2021/07/19 05:20:40;;;;;;;13.27;7.45;;;26.60;55.00;;;;;;5071912;28;20032;-36
2021/07/19 05:23:06;;;;;;;14.00;8.38;;;26.70;55.00;;;;;;5072004;28;20020;-35
2021/07/19 05:25:34;;;;;;;12.70;8.30;;;26.70;54.90;;;;;;5070731;28;20059;-35
2021/07/19 05:28:04;;;;;;;13.65;6.47;;;26.80;54.70;;;;;;5071849;28;20024;-35
2021/07/19 05:30:30;;;;;;;11.02;6.70;;;26.80;54.50;;;;;;5072182;28;20055;-34
2021/07/19 05:32:56;;;;;;;9.48;6.72;;;26.80;54.70;;;;;;5071628;28;20024;-35
2021/07/19 05:35:22;;;;;;;13.27;6.93;;;26.80;54.60;;;;;;5072106;28;20020;-35
2021/07/19 05:37:48;;;;;;;10.65;6.18;;;26.90;54.40;;;;;;5071324;28;20099;-35
2021/07/19 05:40:16;;;;;;;17.60;6.63;;;26.90;54.30;;;;;;5070468;28;20047;-35
2021/07/19 05:42:41;;;;;;;7.10;3.88;;;27.00;54.20;;;;;;5071921;28;20028;-37
2021/07/19 05:45:09;;;;;;;6.55;3.35;;;27.00;53.90;;;;;;5069994;28;20024;-35
2021/07/19 05:47:35;;;;;;;10.07;5.10;;;27.10;53.80;;;;;;5071770;28;20032;-34
2021/07/19 05:50:02;;;;;;;11.40;4.90;;;27.10;53.80;;;;;;5070935;28;20100;-37
2021/07/19 05:52:27;;;;;;;8.27;4.00;;;27.10;53.80;;;;;;5070448;28;20020;-35
2021/07/19 05:54:55;;;;;;;8.10;3.45;;;27.20;53.70;;;;;;5070804;28;20169;-34
2021/07/19 05:57:24;;;;;;;8.68;3.50;;;27.20;53.50;;;;;;5071323;28;20028;-35
2021/07/19 05:59:49;;;;;;;10.32;3.50;;;27.20;53.40;;;;;;5052873;28;20025;-36
2021/07/19 06:02:17;;;;;;;7.15;2.92;;;27.20;53.30;;;;;;5070101;28;20477;-35
2021/07/19 06:04:43;;;;;;;10.77;3.90;;;27.20;53.20;;;;;;5071779;28;20029;-35
2021/07/19 06:07:09;;;;;;;5.93;3.25;;;27.20;53.50;;;;;;5071011;28;20183;-35
2021/07/19 06:09:35;;;;;;;9.68;3.42;;;27.30;53.50;;;;;;5070994;28;20099;-35
2021/07/19 06:12:01;;;;;;;6.55;2.97;;;27.30;53.30;;;;;;5071046;28;20035;-36
2021/07/19 06:14:27;;;;;;;7.88;3.40;;;27.30;53.30;;;;;;5070233;28;20035;-35
2021/07/19 06:16:53;;;;;;;9.43;3.50;;;27.30;53.50;;;;;;5069822;28;20025;-35
2021/07/19 06:19:18;;;;;;;5.97;3.00;;;27.40;53.30;;;;;;5071959;28;20156;-35
2021/07/19 06:21:44;;;;;;;7.72;3.15;;;27.50;53.10;;;;;;5071311;28;20029;-35
2021/07/19 06:24:10;;;;;;;8.88;3.00;;;27.60;53.00;;;;;;5070854;28;20411;-35
2021/07/19 06:26:36;;;;;;;11.30;3.28;;;27.60;53.10;;;;;;5071717;28;20024;-35
2021/07/19 06:29:02;;;;;;;8.02;2.80;;;27.60;52.80;;;;;;5071303;28;20028;-36
2021/07/19 06:31:27;;;;;;;9.45;2.67;;;27.60;53.10;;;;;;5071332;28;20040;-36
2021/07/19 06:33:55;;;;;;;8.30;2.95;;;27.70;53.00;;;;;;5066539;28;20040;-36
2021/07/19 06:36:20;;;;;;;5.95;2.80;;;27.70;52.70;;;;;;5069335;28;20452;-36
2021/07/19 06:38:46;;;;;;;6.25;2.80;;;27.80;52.50;;;;;;5071360;28;20031;-35
2021/07/19 06:41:12;;;;;;;11.77;2.92;;;27.90;52.50;;;;;;5069334;28;20029;-36
2021/07/19 06:43:39;;;;;;;6.80;2.90;;;27.90;52.30;;;;;;5071471;28;20024;-35
2021/07/19 06:46:05;;;;;;;5.97;3.17;;;28.00;52.40;;;;;;5068088;28;20376;-39
2021/07/19 06:48:31;;;;;;;7.93;2.92;;;28.00;52.30;;;;;;5070002;28;20036;-36
2021/07/19 06:50:57;;;;;;;8.88;2.53;;;28.10;52.20;;;;;;5070672;28;20071;-36
2021/07/19 06:53:22;;;;;;;9.70;3.03;;;28.10;51.60;;;;;;5071065;28;20016;-36
2021/07/19 06:55:49;;;;;;;9.05;2.63;;;28.20;51.60;;;;;;5070514;28;20020;-36
2021/07/19 06:58:15;;;;;;;13.52;2.67;;;28.40;51.50;;;;;;5071056;28;20031;-36
2021/07/19 07:00:40;;;;;;;8.40;3.08;;;28.50;51.40;;;;;;5071052;28;20029;-35
2021/07/19 07:03:06;;;;;;;6.15;2.90;;;28.60;51.20;;;;;;5070505;28;20426;-35
2021/07/19 07:05:32;;;;;;;5.93;3.13;;;28.60;51.10;;;;;;5068770;28;20031;-35
2021/07/19 07:07:57;;;;;;;7.22;2.70;;;28.80;50.80;;;;;;5068480;28;20029;-35
2021/07/19 07:10:23;;;;;;;6.13;2.90;;;28.90;50.60;;;;;;5070385;28;20052;-35
2021/07/19 07:12:49;;;;;;;8.23;2.75;;;28.90;50.20;;;;;;5068778;28;20457;-35
2021/07/19 07:15:14;;;;;;;8.77;2.47;;;29.00;50.00;;;;;;5069315;28;20021;-35
2021/07/19 07:17:41;;;;;;;10.60;2.75;;;29.00;50.20;;;;;;5070972;28;20052;-35
2021/07/19 07:20:11;;;;;;;5.65;2.53;;;29.10;49.80;;;;;;5070545;28;20074;-36
2021/07/19 07:22:37;;;;;;;7.18;2.55;;;29.10;49.90;;;;;;5072194;28;20028;-35
2021/07/19 07:25:04;;;;;;;9.60;2.80;;;29.20;49.80;;;;;;5073760;28;20041;-35
2021/07/19 07:27:30;;;;;;;5.88;2.67;;;29.20;49.70;;;;;;5073869;28;20035;-35
2021/07/19 07:29:56;;;;;;;4.10;2.40;;;29.20;49.70;;;;;;5070839;28;20054;-35
2021/07/19 07:32:21;;;;;;;10.02;2.58;;;29.20;49.50;;;;;;5072659;28;20111;-36
2021/07/19 07:34:47;;;;;;;6.18;2.70;;;29.20;49.60;;;;;;5074185;28;20103;-36
2021/07/19 07:37:13;;;;;;;6.20;2.58;;;29.20;49.60;;;;;;5073486;28;20024;-35
2021/07/19 07:39:42;;;;;;;7.63;2.90;;;29.30;49.70;;;;;;5073613;28;20033;-35
2021/07/19 07:42:09;;;;;;;5.07;2.40;;;29.30;49.60;;;;;;5073842;28;20032;-36
2021/07/19 07:44:36;;;;;;;6.13;2.90;;;29.30;49.40;;;;;;5074169;28;20095;-36
2021/07/19 07:47:20;;;;;;;6.25;2.72;;;29.30;49.60;;;;;;5073714;28;20126;-36
2021/07/19 07:49:47;;;;;;;4.75;2.30;;;29.30;49.50;;;;;;5074295;28;20115;-35
2021/07/19 07:52:13;;;;;;;5.22;2.53;;;29.40;49.40;;;;;;5073495;28;20032;-35
2021/07/19 07:54:39;;;;;;;5.90;2.70;;;29.40;49.50;;;;;;5073458;28;20028;-35
2021/07/19 07:57:05;;;;;;;6.85;2.63;;;29.40;49.50;;;;;;5073110;28;20147;-35
2021/07/19 07:59:31;;;;;;;6.95;2.30;;;29.50;49.50;;;;;;5073540;28;20467;-35
2021/07/19 08:01:58;;;;;;;5.57;2.67;;;29.50;49.50;;;;;;5071996;28;20031;-40
2021/07/19 08:04:24;;;;;;;5.65;2.50;;;29.50;49.30;;;;;;5073800;28;20020;-35
2021/07/19 08:06:49;;;;;;;9.80;3.10;;;29.60;49.40;;;;;;5073513;28;20493;-35
2021/07/19 08:09:15;;;;;;;6.60;2.58;;;29.50;49.20;;;;;;5072918;28;20107;-35
2021/07/19 08:11:41;;;;;;;7.45;2.72;;;29.50;49.50;;;;;;5073336;28;20032;-35
2021/07/19 08:14:07;;;;;;;7.65;2.90;;;29.60;49.40;;;;;;5072591;28;20383;-35
2021/07/19 08:16:36;;;;;;;8.40;2.90;;;29.50;49.40;;;;;;5073540;28;20024;-35
2021/07/19 08:19:06;;;;;;;7.43;2.60;;;29.50;49.60;;;;;;5073023;28;20025;-35
2021/07/19 08:21:32;;;;;;;8.48;3.08;;;29.50;49.60;;;;;;5073702;28;20115;-35
2021/07/19 08:23:58;;;;;;;10.85;3.15;;;29.50;49.70;;;;;;5071796;28;20059;-35
2021/07/19 08:26:24;;;;;;;7.85;3.17;;;29.50;49.70;;;;;;5073459;28;20060;-35
2021/07/19 08:28:52;;;;;;;9.00;3.28;;;29.50;49.70;;;;;;5073488;28;20381;-35
2021/07/19 08:31:18;;;;;;;5.13;2.97;;;29.60;49.80;;;;;;5072668;28;20029;-35
2021/07/19 08:33:43;;;;;;;7.05;3.35;;;29.60;49.90;;;;;;5072557;28;20100;-35
2021/07/19 08:36:09;;;;;;;7.15;3.17;;;29.50;49.80;;;;;;5071259;28;20116;-34
2021/07/19 08:38:35;;;;;;;5.15;2.97;;;29.50;50.00;;;;;;5071204;28;20040;-35
2021/07/19 08:41:00;;;;;;;6.50;3.00;;;29.50;50.20;;;;;;5072112;28;20028;-35
2021/07/19 08:43:26;;;;;;;5.63;2.80;;;29.50;50.10;;;;;;5072638;28;20025;-34
2021/07/19 08:45:52;;;;;;;6.00;3.00;;;29.50;50.00;;;;;;5073052;28;20023;-34
2021/07/19 08:48:18;;;;;;;8.45;3.47;;;29.50;49.90;;;;;;5071769;28;20099;-34
2021/07/19 08:50:45;;;;;;;9.38;3.50;;;29.50;49.70;;;;;;5072207;28;20037;-35
2021/07/19 08:53:11;;;;;;;13.18;4.25;;;29.40;50.20;;;;;;5071807;28;20467;-35
2021/07/19 08:55:38;;;;;;;5.43;2.90;;;29.50;49.90;;;;;;5072592;28;20108;-35
2021/07/19 08:58:04;;;;;;;7.35;3.67;;;29.50;49.80;;;;;;5070575;28;20056;-35
2021/07/19 09:00:30;;;;;;;8.25;3.00;;;29.50;49.60;;;;;;5072066;28;20116;-34
2021/07/19 09:02:56;;;;;;;8.93;3.00;;;29.50;49.70;;;;;;5071987;28;20107;-35
2021/07/19 09:05:22;;;;;;;10.55;2.90;;;29.50;49.40;;;;;;5071644;28;20442;-35
2021/07/19 09:07:50;;;;;;;9.13;3.47;;;29.50;49.50;;;;;;5072189;28;20035;-35
2021/07/19 09:10:25;;;;;;;5.55;3.40;;;29.50;49.40;;;;;;5070060;28;20025;-34
2021/07/19 09:12:50;;;;;;;8.20;3.13;;;29.50;49.30;;;;;;5072117;28;20028;-34
2021/07/19 09:15:34;;;;;;;10.15;3.00;;;29.50;49.10;;;;;;5071701;28;20173;-35
2021/07/19 09:18:01;;;;;;;7.32;2.88;;;29.40;49.10;;;;;;5055463;28;20028;-36
2021/07/19 09:20:35;;;;;;;10.73;3.47;;;29.50;48.20;;;;;;5071654;28;20024;-36
2021/07/19 09:23:02;;;;;;;18.73;4.35;;;29.30;48.30;;;;;;5072166;28;20021;-36
2021/07/19 09:25:28;;;;;;;16.23;4.70;;;29.30;48.20;;;;;;5071164;28;20044;-40
2021/07/19 09:28:04;;;;;;;13.25;3.85;;;29.30;48.40;;;;;;5069606;28;20028;-37
2021/07/19 09:30:32;;;;;;;14.15;3.53;;;29.30;48.50;;;;;;5069809;28;20475;-36
2021/07/19 09:33:02;;;;;;;11.63;3.85;;;29.30;48.10;;;;;;5071343;28;20052;-36
2021/07/19 09:35:29;;;;;;;10.82;3.35;;;29.30;48.20;;;;;;5069216;28;20025;-36
2021/07/19 09:37:55;;;;;;;6.75;3.15;;;29.40;48.40;;;;;;5069430;28;20028;-36
2021/07/19 09:40:29;;;;;;;11.75;3.75;;;29.40;48.20;;;;;;5069467;28;20115;-36
2021/07/19 09:42:55;;;;;;;10.30;3.72;;;29.30;46.90;;;;;;5071405;28;20021;-36
2021/07/19 09:45:31;;;;;;;7.57;3.45;;;29.30;46.30;;;;;;5070107;28;20035;-41
2021/07/19 09:48:21;;;;;;;14.02;3.58;;;29.20;46.10;;;;;;5069013;28;20119;-36
2021/07/19 09:50:51;;;;;;;7.45;3.38;;;29.20;46.30;;;;;;5070653;28;20414;-36
2021/07/19 09:53:40;;;;;;;9.35;4.40;;;29.30;46.80;;;;;;5070314;28;20028;-36
2021/07/19 09:56:17;;;;;;;8.38;3.28;;;29.30;46.30;;;;;;5070400;28;20538;-36
2021/07/19 09:58:48;;;;;;;11.80;3.88;;;29.30;46.30;;;;;;5068792;28;20024;-36
2021/07/19 10:01:31;;;;;;;12.68;3.60;;;29.40;46.00;;;;;;5069662;28;20085;-36
2021/07/19 10:04:02;;;;;;;9.07;3.60;;;29.30;46.00;;;;;;5070468;28;20383;-36
2021/07/19 10:06:29;;;;;;;9.07;3.55;;;29.40;46.40;;;;;;5066414;28;20021;-36
2021/07/19 10:08:59;;;;;;;10.70;4.18;;;29.40;46.40;;;;;;5070448;28;20025;-36
2021/07/19 10:11:31;;;;;;;8.68;3.90;;;29.30;45.80;;;;;;5070345;28;20043;-36
2021/07/19 10:13:57;;;;;;;8.52;4.15;;;29.30;45.90;;;;;;5069323;28;20047;-36
2021/07/19 10:16:27;;;;;;;8.00;4.13;;;29.30;45.90;;;;;;5069890;28;20416;-36
2021/07/19 10:18:53;;;;;;;8.68;4.28;;;29.30;45.90;;;;;;5070910;28;20028;-36
2021/07/19 10:21:21;;;;;;;10.63;4.50;;;29.30;45.60;;;;;;5070445;28;20040;-37
2021/07/19 10:23:47;;;;;;;12.43;4.38;;;29.30;45.30;;;;;;5070907;28;20020;-36
2021/07/19 10:26:13;;;;;;;9.07;4.13;;;29.40;45.30;;;;;;5070455;28;20028;-35
2021/07/19 10:28:38;;;;;;;8.95;4.18;;;29.40;45.30;;;;;;5070866;28;20025;-35
2021/07/19 10:31:04;;;;;;;11.45;4.75;;;29.50;45.40;;;;;;5069361;28;20358;-35
2021/07/19 10:33:31;;;;;;;13.00;4.45;;;29.50;45.20;;;;;;5069830;28;20028;-35
2021/07/19 10:36:01;;;;;;;9.63;4.60;;;29.40;45.20;;;;;;5070882;28;20036;-35
2021/07/19 10:38:30;;;;;;;10.32;4.65;;;29.50;45.40;;;;;;5068505;28;20029;-36
2021/07/19 10:40:59;;;;;;;9.32;4.93;;;29.50;45.80;;;;;;5052605;28;20028;-35
2021/07/19 10:43:29;;;;;;;7.78;4.13;;;29.50;45.60;;;;;;5069928;28;20446;-35
2021/07/19 10:45:57;;;;;;;15.52;6.32;;;29.40;45.20;;;;;;5070224;28;20517;-36
2021/07/19 10:48:27;;;;;;;12.80;5.75;;;29.30;44.40;;;;;;5068291;28;20488;-35
2021/07/19 10:50:57;;;;;;;12.80;6.70;;;29.30;45.00;;;;;;5068480;28;20032;-35
2021/07/19 10:53:26;;;;;;;13.00;6.20;;;29.40;44.80;;;;;;5069591;28;20090;-34
2021/07/19 10:55:58;;;;;;;12.57;6.25;;;29.50;45.00;;;;;;5070827;28;20529;-35
2021/07/19 10:58:29;;;;;;;14.02;5.38;;;29.40;44.50;;;;;;5073450;28;20032;-35
2021/07/19 11:00:57;;;;;;;16.98;5.82;;;29.50;44.90;;;;;;5074226;28;20028;-35
2021/07/19 11:03:23;;;;;;;14.48;5.85;;;29.50;45.20;;;;;;5072333;28;20085;-35
2021/07/19 11:05:53;;;;;;;14.57;5.20;;;29.50;45.00;;;;;;5074586;28;20025;-35
2021/07/19 11:08:24;;;;;;;10.13;4.53;;;29.50;44.60;;;;;;5072842;28;20040;-35
2021/07/19 11:10:51;;;;;;;9.18;4.88;;;29.50;44.20;;;;;;5074286;28;20032;-35
2021/07/19 11:13:25;;;;;;;13.45;5.22;;;29.50;44.70;;;;;;5073443;28;20055;-35
2021/07/19 11:15:51;;;;;;;11.60;4.88;;;29.50;44.30;;;;;;5072872;28;20024;-36
2021/07/19 11:18:22;;;;;;;13.15;5.80;;;29.60;44.40;;;;;;5073669;28;20059;-36
2021/07/19 11:20:49;;;;;;;8.55;5.15;;;29.50;43.60;;;;;;5073999;28;20024;-36
2021/07/19 11:23:23;;;;;;;10.15;5.07;;;29.50;43.90;;;;;;5073256;28;20027;-36
2021/07/19 11:25:49;;;;;;;10.38;5.13;;;29.60;43.90;;;;;;5074159;28;20523;-35
2021/07/19 11:28:17;;;;;;;14.13;5.07;;;29.60;44.30;;;;;;5072012;28;20031;-36
2021/07/19 11:31:03;;;;;;;9.23;4.28;;;29.50;44.30;;;;;;5073988;28;20028;-36
2021/07/19 11:33:41;;;;;;;10.18;5.07;;;29.60;44.30;;;;;;5071965;28;20107;-36
2021/07/19 11:36:21;;;;;;;12.73;5.18;;;29.60;43.90;;;;;;5072408;28;20325;-36
2021/07/19 11:38:47;;;;;;;8.73;4.40;;;29.60;43.90;;;;;;5073665;28;20044;-37
2021/07/19 11:41:19;;;;;;;7.53;4.57;;;29.60;43.80;;;;;;5073307;28;20104;-37
2021/07/19 11:43:46;;;;;;;14.30;4.90;;;29.60;43.90;;;;;;5073289;28;20062;-36
2021/07/19 11:46:12;;;;;;;11.05;5.28;;;29.60;43.70;;;;;;5073573;28;20024;-36
2021/07/19 11:48:42;;;;;;;12.70;5.20;;;29.60;43.40;;;;;;5072360;28;20091;-36
2021/07/19 11:51:08;;;;;;;9.38;4.50;;;29.60;43.30;;;;;;5073546;28;20258;-36
2021/07/19 11:53:42;;;;;;;9.35;4.95;;;29.60;44.20;;;;;;5073152;28;20543;-35
2021/07/19 11:56:08;;;;;;;8.88;4.57;;;29.60;43.70;;;;;;5072355;28;20076;-35
2021/07/19 11:58:34;;;;;;;10.43;4.45;;;29.70;43.70;;;;;;5071423;28;20029;-36
2021/07/19 12:01:01;;;;;;;14.75;5.80;;;29.70;43.60;;;;;;5072220;28;20059;-36
2021/07/19 12:03:29;;;;;;;12.60;6.20;;;29.70;43.80;;;;;;5072663;28;20033;-35
2021/07/19 12:05:57;;;;;;;15.27;5.63;;;29.70;43.50;;;;;;5073639;28;20032;-36
2021/07/19 12:08:34;;;;;;;15.02;6.50;;;29.60;43.40;;;;;;5071812;28;20029;-35
2021/07/19 12:11:04;;;;;;;8.88;5.80;;;29.70;43.80;;;;;;5072086;28;20498;-36
2021/07/19 12:13:34;;;;;;;18.23;6.30;;;29.70;43.40;;;;;;5071493;28;20029;-35
2021/07/19 12:16:00;;;;;;;10.20;6.05;;;29.70;43.40;;;;;;5072822;28;20476;-36
2021/07/19 12:18:26;;;;;;;10.80;5.10;;;29.70;43.60;;;;;;5072483;28;20108;-36
2021/07/19 12:21:06;;;;;;;12.02;5.40;;;29.70;43.80;;;;;;5072581;28;20051;-36
2021/07/19 12:23:44;;;;;;;11.88;5.43;;;29.70;43.60;;;;;;5072379;28;20024;-36
2021/07/19 12:26:33;;;;;;;9.07;5.25;;;29.70;43.60;;;;;;5071203;28;20036;-36
2021/07/19 12:29:03;;;;;;;14.27;5.43;;;29.70;43.90;;;;;;5071295;28;20059;-35
2021/07/19 12:31:30;;;;;;;11.75;5.43;;;29.70;43.60;;;;;;5071958;28;20471;-35
2021/07/19 12:34:19;;;;;;;10.85;5.30;;;29.80;44.10;;;;;;5072739;28;20032;-35
2021/07/19 12:36:51;;;;;;;10.70;5.28;;;29.80;43.70;;;;;;5072788;28;20024;-35
2021/07/19 12:39:24;;;;;;;14.10;6.23;;;29.80;43.20;;;;;;5072362;28;20020;-40
2021/07/19 12:41:52;;;;;;;15.13;6.25;;;29.70;43.60;;;;;;5072476;28;20347;-35
2021/07/19 12:44:27;;;;;;;22.25;7.13;;;29.80;43.50;;;;;;5070590;28;20032;-44
2021/07/19 12:46:54;;;;;;;15.90;7.40;;;29.80;43.10;;;;;;5072075;28;20464;-36
2021/07/19 12:49:28;;;;;;;13.80;6.80;;;29.80;43.00;;;;;;5071458;28;20032;-36
2021/07/19 12:52:05;;;;;;;16.88;7.00;;;29.80;43.10;;;;;;5072144;28;20033;-36